Kingsville, TX

6:50 PM CDT on September 01, 2014 (GMT -0500)
Kingsville Naval Air Station | Change Station
CLOSE
Current Station
Airport
Location: Kingsville NAS,
Elevation: 49 ft
Nearby Weather Stations

Elev 49 ft 27.51 °N, 97.81 °W | Updated 54 minutes ago

Clear
Clear
93 °F
Feels Like 103 °F
N
17
Wind Variable Wind from SE
Gusts 23 mph

Today
High -- | Low -- °F
--% Chance of Precip.
Yesterday
High -- | Low -- °F
Precip. -- in
7:10 AM 7:51 PM
Waxing Crescent, 45% visible
Pressure 29.85 in
Visibility 10.0 miles
Clouds Clear
Heat Index 103 °F
Dew Point 74 °F
Humidity 54%
Rainfall 0.00 in
Snow Depth Not available.
UV 2 out of 12
Pollen 7.70 out of 12
Air Quality Not available.
Flu Activity Not available.
METAR KNQI 012256Z AUTO 13015G20KT 10SM CLR 34/23 A2986 RMK AO2 SLP107 T03390233 $

More Conditions Fewer Conditions

Pressure 29.85 in
Visibility 10.0 miles
Clouds Clear
Heat Index 103 °F
Dew Point 74 °F
Humidity 54%
Rainfall 0.00 in
Snow Depth Not available.
UV 2 out of 12
Pollen 7.70 out of 12
Air Quality Not available.
Flu Activity Not available.
METAR KNQI 012256Z AUTO 13015G20KT 10SM CLR 34/23 A2986 RMK AO2 SLP107 T03390233 $

More Conditions Fewer Conditions

Nowcast | as of 5:08 PM CDT on September 1, 2014

Isolated showers will continue to affect portions of south Texas and the middle Texas coastal waters this afternoon. Through 7 PM CDT...rainfall amounts will generally be less than a tenth of an inch.

×

10-Day Weather Forecast

Almanac

Astronomy

Sep. 01, 2014 Rise Set
Actual Time 7:10 AM CDT 7:51 PM CDT
Civil Twilight 6:46 AM CDT 8:15 PM CDT
Nautical Twilight 6:18 AM CDT 8:43 PM CDT
Astronomical Twilight 5:50 AM CDT 9:11 PM CDT
Moon 1:22 PM CDT No Moon Set
Length of Visible Light 13h 28m
Length of Day
12h 41m
Tomorrow will be 1m 34s shorter.
Waxing Crescent, 45% of the Moon is Illuminated
Today
Waxing Crescent
Sep 2
First Quarter
Sep 8
Full
Sep 15
Last Quarter
Sep 24
New

Today's Extremes

State Highs State Lows

Community

WunderPhotos

Upload Photos

1,749,440 photos uploaded!

Nearby

Snow Depth

Station Depth Elevation
No new snow has been reported.

Earthquake Activity

City Distance Mag. Time & Date
No recent earthquake activity has been reported nearby.
Minimum magnitude displayed is 2.5.

Coastal Water Temperatures

Place Temperature
Baffin Bay Point of Rocks, TX 87.1 °F
South Bird Island, TX 89.1 °F
Packery Channel, TX 87.1 °F
Port Aransas, TX 86.0 °F
Malaquite Beach (Corpus Christi), TX 86.0 °F

Nearby Weather Stations